sensor_id;sensor_type;location;lat;lon;timestamp;temperature;humidity
63976;DHT22;50167;47.958;21.780;2023-03-23T00:01:37;7.83;62.37
63976;DHT22;50167;47.958;21.780;2023-03-23T00:04:04;8.70;68.29
63976;DHT22;50167;47.958;21.780;2023-03-23T00:06:30;10.53;67.38
63976;DHT22;50167;47.958;21.780;2023-03-23T00:08:58;11.73;62.13
63976;DHT22;50167;47.958;21.780;2023-03-23T00:11:32;12.41;59.09
63976;DHT22;50167;47.958;21.780;2023-03-23T00:14:00;12.10;54.01
63976;DHT22;50167;47.958;21.780;2023-03-23T00:16:31;11.02;54.27
63976;DHT22;50167;47.958;21.780;2023-03-23T00:19:05;10.13;55.63
63976;DHT22;50167;47.958;21.780;2023-03-23T00:21:37;9.48;56.84
63976;DHT22;50167;47.958;21.780;2023-03-23T00:24:14;9.00;58.04
63976;DHT22;50167;47.958;21.780;2023-03-23T00:26:40;8.53;59.27
63976;DHT22;50167;47.958;21.780;2023-03-23T00:29:20;8.21;60.39
63976;DHT22;50167;47.958;21.780;2023-03-23T00:31:52;7.87;61.51
63976;DHT22;50167;47.958;21.780;2023-03-23T00:34:21;7.59;62.25
63976;DHT22;50167;47.958;21.780;2023-03-23T00:36:50;8.36;67.42
63976;DHT22;50167;47.958;21.780;2023-03-23T00:39:19;10.03;67.16
63976;DHT22;50167;47.958;21.780;2023-03-23T00:41:46;11.15;62.64
63976;DHT22;50167;47.958;21.780;2023-03-23T00:44:13;11.79;59.73
63976;DHT22;50167;47.958;21.780;2023-03-23T00:46:44;11.58;55.01
63976;DHT22;50167;47.958;21.780;2023-03-23T00:49:18;10.55;54.85
63976;DHT22;50167;47.958;21.780;2023-03-23T00:51:45;9.76;55.98
63976;DHT22;50167;47.958;21.780;2023-03-23T00:54:12;9.11;57.99
63976;DHT22;50167;47.958;21.780;2023-03-23T00:56:38;8.66;59.09
63976;DHT22;50167;47.958;21.780;2023-03-23T00:59:05;8.27;60.16
63976;DHT22;50167;47.958;21.780;2023-03-23T01:01:33;7.97;61.22
63976;DHT22;50167;47.958;21.780;2023-03-23T01:04:01;7.65;62.30
63976;DHT22;50167;47.958;21.780;2023-03-23T01:06:36;8.41;67.66
63976;DHT22;50167;47.958;21.780;2023-03-23T01:09:06;10.07;67.31
63976;DHT22;50167;47.958;21.780;2023-03-23T01:11:34;11.11;62.72
63976;DHT22;50167;47.958;21.780;2023-03-23T01:14:01;11.83;59.23
63976;DHT22;50167;47.958;21.780;2023-03-23T01:16:28;11.59;54.68
63976;DHT22;50167;47.958;21.780;2023-03-23T01:18:54;10.59;54.57
63976;DHT22;50167;47.958;21.780;2023-03-23T01:21:21;9.79;55.87
63976;DHT22;50167;47.958;21.780;2023-03-23T01:23:48;9.15;57.15
63976;DHT22;50167;47.958;21.780;2023-03-23T01:26:21;8.66;58.61
63976;DHT22;50167;47.958;21.780;2023-03-23T01:28:49;8.21;59.96
63976;DHT22;50167;47.958;21.780;2023-03-23T01:31:18;7.87;61.07
63976;DHT22;50167;47.958;21.780;2023-03-23T01:33:45;7.55;62.08
63976;DHT22;50167;47.958;21.780;2023-03-23T01:36:19;8.27;67.70
63976;DHT22;50167;47.958;21.780;2023-03-23T01:38:47;9.97;67.41
63976;DHT22;50167;47.958;21.780;2023-03-23T01:41:15;11.18;63.02
63976;DHT22;50167;47.958;21.780;2023-03-23T01:46:35;11.57;54.17
63976;DHT22;50167;47.958;21.780;2023-03-23T01:49:12;10.48;54.39
63976;DHT22;50167;47.958;21.780;2023-03-23T01:51:49;9.56;55.74
63976;DHT22;50167;47.958;21.780;2023-03-23T01:54:19;8.86;57.45
63976;DHT22;50167;47.958;21.780;2023-03-23T01:57:01;8.41;58.59
63976;DHT22;50167;47.958;21.780;2023-03-23T01:59:29;7.97;59.21
63976;DHT22;50167;47.958;21.780;2023-03-23T02:01:56;7.65;61.25
63976;DHT22;50167;47.958;21.780;2023-03-23T02:04:24;7.32;62.37
63976;DHT22;50167;47.958;21.780;2023-03-23T02:06:52;8.11;68.42
63976;DHT22;50167;47.958;21.780;2023-03-23T02:09:20;9.87;68.06
63976;DHT22;50167;47.958;21.780;2023-03-23T02:11:47;11.15;63.40
63976;DHT22;50167;47.958;21.780;2023-03-23T02:14:16;11.97;58.67
63976;DHT22;50167;47.958;21.780;2023-03-23T02:17:16;11.62;53.76
63976;DHT22;50167;47.958;21.780;2023-03-23T02:23:20;9.27;56.26
63976;DHT22;50167;47.958;21.780;2023-03-23T02:26:16;8.55;57.79
63976;DHT22;50167;47.958;21.780;2023-03-23T02:31:43;7.59;60.66
63976;DHT22;50167;47.958;21.780;2023-03-23T02:34:27;7.18;61.51
63976;DHT22;50167;47.958;21.780;2023-03-23T02:37:04;8.04;68.23
63976;DHT22;50167;47.958;21.780;2023-03-23T02:39:40;9.60;67.14
63976;DHT22;50167;47.958;21.780;2023-03-23T02:42:08;10.69;62.33
63976;DHT22;50167;47.958;21.780;2023-03-23T02:44:40;11.25;59.58
63976;DHT22;50167;47.958;21.780;2023-03-23T02:47:21;10.89;55.45
63976;DHT22;50167;47.958;21.780;2023-03-23T02:49:48;9.76;55.73
63976;DHT22;50167;47.958;21.780;2023-03-23T02:52:19;8.89;56.79
63976;DHT22;50167;47.958;21.780;2023-03-23T02:54:48;8.20;58.12
63976;DHT22;50167;47.958;21.780;2023-03-23T02:57:15;7.71;59.28
63976;DHT22;50167;47.958;21.780;2023-03-23T02:59:42;7.28;60.68
63976;DHT22;50167;47.958;21.780;2023-03-23T03:02:12;6.93;61.98
63976;DHT22;50167;47.958;21.780;2023-03-23T03:04:41;7.62;67.25
63976;DHT22;50167;47.958;21.780;2023-03-23T03:07:27;9.12;67.68
63976;DHT22;50167;47.958;21.780;2023-03-23T03:10:00;10.14;64.14
63976;DHT22;50167;47.958;21.780;2023-03-23T03:12:40;10.84;60.33
63976;DHT22;50167;47.958;21.780;2023-03-23T03:15:11;10.68;55.95
63976;DHT22;50167;47.958;21.780;2023-03-23T03:17:41;9.58;55.65
63976;DHT22;50167;47.958;21.780;2023-03-23T03:20:10;8.67;57.19
63976;DHT22;50167;47.958;21.780;2023-03-23T03:22:42;8.07;58.46
63976;DHT22;50167;47.958;21.780;2023-03-23T03:25:10;7.55;60.05
63976;DHT22;50167;47.958;21.780;2023-03-23T03:27:43;7.15;60.54
63976;DHT22;50167;47.958;21.780;2023-03-23T03:30:14;6.75;61.81
63976;DHT22;50167;47.958;21.780;2023-03-23T03:32:46;7.41;68.18
63976;DHT22;50167;47.958;21.780;2023-03-23T03:35:15;8.91;67.54
63976;DHT22;50167;47.958;21.780;2023-03-23T03:37:42;9.85;63.88
63976;DHT22;50167;47.958;21.780;2023-03-23T03:40:13;10.53;61.15
63976;DHT22;50167;47.958;21.780;2023-03-23T03:42:42;11.21;58.61
63976;DHT22;50167;47.958;21.780;2023-03-23T03:45:13;10.87;53.85
63976;DHT22;50167;47.958;21.780;2023-03-23T03:47:40;9.72;53.72
63976;DHT22;50167;47.958;21.780;2023-03-23T03:50:07;8.81;55.68
63976;DHT22;50167;47.958;21.780;2023-03-23T03:52:35;8.13;57.23
63976;DHT22;50167;47.958;21.780;2023-03-23T03:55:01;7.57;58.33
63976;DHT22;50167;47.958;21.780;2023-03-23T03:57:28;7.15;59.70
63976;DHT22;50167;47.958;21.780;2023-03-23T03:59:54;6.79;61.04
63976;DHT22;50167;47.958;21.780;2023-03-23T04:02:21;6.48;62.13
63976;DHT22;50167;47.958;21.780;2023-03-23T04:04:49;7.28;68.05
63976;DHT22;50167;47.958;21.780;2023-03-23T04:07:16;8.77;67.50
63976;DHT22;50167;47.958;21.780;2023-03-23T04:09:45;9.69;63.35
63976;DHT22;50167;47.958;21.780;2023-03-23T04:12:14;10.25;60.79
63976;DHT22;50167;47.958;21.780;2023-03-23T04:14:40;10.80;59.61
63976;DHT22;50167;47.958;21.780;2023-03-23T04:17:07;10.53;55.23
63976;DHT22;50167;47.958;21.780;2023-03-23T04:19:36;9.50;55.23
63976;DHT22;50167;47.958;21.780;2023-03-23T04:22:04;8.66;56.92
63976;DHT22;50167;47.958;21.780;2023-03-23T04:24:31;8.00;58.53
63976;DHT22;50167;47.958;21.780;2023-03-23T04:26:59;7.53;60.06
63976;DHT22;50167;47.958;21.780;2023-03-23T04:29:26;7.19;61.46
63976;DHT22;50167;47.958;21.780;2023-03-23T04:31:53;7.76;66.87
63976;DHT22;50167;47.958;21.780;2023-03-23T04:34:22;9.35;66.56
63976;DHT22;50167;47.958;21.780;2023-03-23T04:36:49;10.36;62.63
63976;DHT22;50167;47.958;21.780;2023-03-23T04:39:16;11.02;60.04
63976;DHT22;50167;47.958;21.780;2023-03-23T04:41:43;10.80;56.26
63976;DHT22;50167;47.958;21.780;2023-03-23T04:44:12;9.72;56.07
63976;DHT22;50167;47.958;21.780;2023-03-23T04:46:40;8.93;57.41
63976;DHT22;50167;47.958;21.780;2023-03-23T04:49:06;8.36;58.79
63976;DHT22;50167;47.958;21.780;2023-03-23T04:51:33;7.98;59.85
63976;DHT22;50167;47.958;21.780;2023-03-23T04:54:01;7.69;60.87
63976;DHT22;50167;47.958;21.780;2023-03-23T04:56:27;7.41;62.64
63976;DHT22;50167;47.958;21.780;2023-03-23T04:58:54;8.08;67.69
63976;DHT22;50167;47.958;21.780;2023-03-23T05:01:20;9.52;66.56
63976;DHT22;50167;47.958;21.780;2023-03-23T05:03:47;10.56;63.25
63976;DHT22;50167;47.958;21.780;2023-03-23T05:06:13;11.48;60.19
63976;DHT22;50167;47.958;21.780;2023-03-23T05:08:40;11.55;55.80
63976;DHT22;50167;47.958;21.780;2023-03-23T05:11:06;10.65;55.48
63976;DHT22;50167;47.958;21.780;2023-03-23T05:13:34;9.93;56.54
63976;DHT22;50167;47.958;21.780;2023-03-23T05:16:05;9.41;57.77
63976;DHT22;50167;47.958;21.780;2023-03-23T05:18:32;9.01;58.85
63976;DHT22;50167;47.958;21.780;2023-03-23T05:21:04;8.72;60.15
63976;DHT22;50167;47.958;21.780;2023-03-23T05:23:30;8.46;61.64
63976;DHT22;50167;47.958;21.780;2023-03-23T05:26:05;8.15;62.43
63976;DHT22;50167;47.958;21.780;2023-03-23T05:32:51;11.52;62.98
63976;DHT22;50167;47.958;21.780;2023-03-23T05:35:19;12.37;58.90
63976;DHT22;50167;47.958;21.780;2023-03-23T05:37:46;12.37;54.14
63976;DHT22;50167;47.958;21.780;2023-03-23T05:40:13;11.58;54.19
63976;DHT22;50167;47.958;21.780;2023-03-23T05:42:40;10.92;55.65
63976;DHT22;50167;47.958;21.780;2023-03-23T05:45:10;10.49;57.06
63976;DHT22;50167;47.958;21.780;2023-03-23T05:47:39;10.21;57.76
63976;DHT22;50167;47.958;21.780;2023-03-23T05:50:08;10.00;58.97
63976;DHT22;50167;47.958;21.780;2023-03-23T05:52:39;9.87;59.65
63976;DHT22;50167;47.958;21.780;2023-03-23T05:55:07;9.79;60.29
63976;DHT22;50167;47.958;21.780;2023-03-23T05:57:33;9.79;60.87
63976;DHT22;50167;47.958;21.780;2023-03-23T06:00:00;9.74;61.85
63976;DHT22;50167;47.958;21.780;2023-03-23T06:02:28;9.70;61.96
63976;DHT22;50167;47.958;21.780;2023-03-23T06:04:55;10.58;63.75
63976;DHT22;50167;47.958;21.780;2023-03-23T06:07:25;12.41;61.55
63976;DHT22;50167;47.958;21.780;2023-03-23T06:09:52;13.70;57.01
63976;DHT22;50167;47.958;21.780;2023-03-23T06:12:19;13.68;52.91
63976;DHT22;50167;47.958;21.780;2023-03-23T06:14:49;12.86;53.84
63976;DHT22;50167;47.958;21.780;2023-03-23T06:17:16;12.21;55.46
63976;DHT22;50167;47.958;21.780;2023-03-23T06:19:43;11.80;56.81
63976;DHT22;50167;47.958;21.780;2023-03-23T06:22:11;11.59;58.30
63976;DHT22;50167;47.958;21.780;2023-03-23T06:24:37;11.42;58.81
63976;DHT22;50167;47.958;21.780;2023-03-23T06:27:04;11.30;59.36
63976;DHT22;50167;47.958;21.780;2023-03-23T06:29:30;11.17;59.44
63976;DHT22;50167;47.958;21.780;2023-03-23T06:32:00;11.18;60.05
63976;DHT22;50167;47.958;21.780;2023-03-23T06:34:28;11.22;57.39
63976;DHT22;50167;47.958;21.780;2023-03-23T06:36:54;11.32;59.68
63976;DHT22;50167;47.958;21.780;2023-03-23T06:39:21;11.30;61.50
63976;DHT22;50167;47.958;21.780;2023-03-23T06:41:48;11.32;60.12
63976;DHT22;50167;47.958;21.780;2023-03-23T06:44:15;11.27;61.44
63976;DHT22;50167;47.958;21.780;2023-03-23T06:46:42;11.25;60.48
63976;DHT22;50167;47.958;21.780;2023-03-23T06:49:08;11.25;60.70
63976;DHT22;50167;47.958;21.780;2023-03-23T06:51:36;11.30;60.74
63976;DHT22;50167;47.958;21.780;2023-03-23T06:54:04;11.34;61.23
63976;DHT22;50167;47.958;21.780;2023-03-23T06:56:31;11.38;61.08
63976;DHT22;50167;47.958;21.780;2023-03-23T06:58:57;11.47;61.18
63976;DHT22;50167;47.958;21.780;2023-03-23T07:01:24;11.52;61.41
63976;DHT22;50167;47.958;21.780;2023-03-23T07:03:50;11.61;60.86
63976;DHT22;50167;47.958;21.780;2023-03-23T07:06:16;11.66;61.07
63976;DHT22;50167;47.958;21.780;2023-03-23T07:08:42;11.78;60.70
63976;DHT22;50167;47.958;21.780;2023-03-23T07:11:09;11.83;60.41
63976;DHT22;50167;47.958;21.780;2023-03-23T07:13:36;12.00;59.91
63976;DHT22;50167;47.958;21.780;2023-03-23T07:16:05;12.19;59.61
63976;DHT22;50167;47.958;21.780;2023-03-23T07:18:32;12.36;59.12
63976;DHT22;50167;47.958;21.780;2023-03-23T07:20:59;12.47;59.40
63976;DHT22;50167;47.958;21.780;2023-03-23T07:23:26;12.58;59.11
63976;DHT22;50167;47.958;21.780;2023-03-23T07:25:52;12.71;58.55
63976;DHT22;50167;47.958;21.780;2023-03-23T07:28:19;12.80;57.76
63976;DHT22;50167;47.958;21.780;2023-03-23T07:30:45;12.85;57.20
63976;DHT22;50167;47.958;21.780;2023-03-23T07:33:12;12.92;57.06
63976;DHT22;50167;47.958;21.780;2023-03-23T07:35:38;12.95;56.89
63976;DHT22;50167;47.958;21.780;2023-03-23T07:38:06;12.96;57.14
63976;DHT22;50167;47.958;21.780;2023-03-23T07:40:33;13.03;56.99
63976;DHT22;50167;47.958;21.780;2023-03-23T07:43:01;13.13;57.20
63976;DHT22;50167;47.958;21.780;2023-03-23T07:45:29;13.30;57.28
63976;DHT22;50167;47.958;21.780;2023-03-23T07:47:56;13.50;57.05
63976;DHT22;50167;47.958;21.780;2023-03-23T07:50:22;13.61;56.91
63976;DHT22;50167;47.958;21.780;2023-03-23T07:52:55;13.70;55.90
63976;DHT22;50167;47.958;21.780;2023-03-23T07:55:21;13.86;56.13
63976;DHT22;50167;47.958;21.780;2023-03-23T07:57:50;14.00;55.61
63976;DHT22;50167;47.958;21.780;2023-03-23T08:00:19;14.30;54.28
63976;DHT22;50167;47.958;21.780;2023-03-23T08:02:47;14.43;53.12
63976;DHT22;50167;47.958;21.780;2023-03-23T08:05:15;14.51;53.55
63976;DHT22;50167;47.958;21.780;2023-03-23T08:07:42;14.61;54.35
63976;DHT22;50167;47.958;21.780;2023-03-23T08:10:10;14.64;53.65
63976;DHT22;50167;47.958;21.780;2023-03-23T08:12:41;14.65;52.95
63976;DHT22;50167;47.958;21.780;2023-03-23T08:15:11;14.72;52.96
63976;DHT22;50167;47.958;21.780;2023-03-23T08:17:41;14.77;52.41
63976;DHT22;50167;47.958;21.780;2023-03-23T08:20:15;14.91;53.09
63976;DHT22;50167;47.958;21.780;2023-03-23T08:22:54;15.13;52.57
63976;DHT22;50167;47.958;21.780;2023-03-23T08:25:13;15.34;52.77
63976;DHT22;50167;47.958;21.780;2023-03-23T08:27:41;15.54;50.95
63976;DHT22;50167;47.958;21.780;2023-03-23T08:30:13;15.70;51.26
63976;DHT22;50167;47.958;21.780;2023-03-23T08:32:40;15.91;51.14
63976;DHT22;50167;47.958;21.780;2023-03-23T08:35:08;16.09;50.75
63976;DHT22;50167;47.958;21.780;2023-03-23T08:37:36;16.22;51.03
63976;DHT22;50167;47.958;21.780;2023-03-23T08:40:04;16.35;49.44
63976;DHT22;50167;47.958;21.780;2023-03-23T08:42:38;16.44;50.26
63976;DHT22;50167;47.958;21.780;2023-03-23T08:45:07;16.51;47.96
63976;DHT22;50167;47.958;21.780;2023-03-23T08:47:35;16.60;48.80
63976;DHT22;50167;47.958;21.780;2023-03-23T08:50:06;16.75;48.59
63976;DHT22;50167;47.958;21.780;2023-03-23T08:52:32;16.98;48.54
63976;DHT22;50167;47.958;21.780;2023-03-23T08:54:59;17.19;46.23
63976;DHT22;50167;47.958;21.780;2023-03-23T08:57:28;17.37;43.47
63976;DHT22;50167;47.958;21.780;2023-03-23T08:59:55;17.43;43.61
63976;DHT22;50167;47.958;21.780;2023-03-23T09:02:23;17.39;44.47
63976;DHT22;50167;47.958;21.780;2023-03-23T09:04:49;17.49;45.67
63976;DHT22;50167;47.958;21.780;2023-03-23T09:07:16;17.62;44.03
63976;DHT22;50167;47.958;21.780;2023-03-23T09:09:42;17.69;43.61
63976;DHT22;50167;47.958;21.780;2023-03-23T09:12:10;17.73;43.64
63976;DHT22;50167;47.958;21.780;2023-03-23T09:14:38;17.81;43.07
63976;DHT22;50167;47.958;21.780;2023-03-23T09:17:05;17.91;42.61
63976;DHT22;50167;47.958;21.780;2023-03-23T09:19:34;17.97;43.18
63976;DHT22;50167;47.958;21.780;2023-03-23T09:22:02;18.12;42.46
63976;DHT22;50167;47.958;21.780;2023-03-23T09:24:30;18.22;42.02
63976;DHT22;50167;47.958;21.780;2023-03-23T09:26:56;18.33;41.81
63976;DHT22;50167;47.958;21.780;2023-03-23T09:29:26;18.59;42.38
63976;DHT22;50167;47.958;21.780;2023-03-23T09:31:54;18.90;43.20
63976;DHT22;50167;47.958;21.780;2023-03-23T09:34:22;19.12;40.06
63976;DHT22;50167;47.958;21.780;2023-03-23T09:36:48;19.29;39.61
63976;DHT22;50167;47.958;21.780;2023-03-23T09:39:15;19.31;40.45
63976;DHT22;50167;47.958;21.780;2023-03-23T09:42:24;19.34;40.27
63976;DHT22;50167;47.958;21.780;2023-03-23T09:45:05;19.38;39.37
63976;DHT22;50167;47.958;21.780;2023-03-23T09:50:28;19.55;40.31
63976;DHT22;50167;47.958;21.780;2023-03-23T09:53:19;19.67;39.44
63976;DHT22;50167;47.958;21.780;2023-03-23T09:55:45;19.88;39.22
63976;DHT22;50167;47.958;21.780;2023-03-23T09:58:35;19.99;37.34
63976;DHT22;50167;47.958;21.780;2023-03-23T10:01:28;19.91;38.05
63976;DHT22;50167;47.958;21.780;2023-03-23T10:06:47;19.69;38.76
63976;DHT22;50167;47.958;21.780;2023-03-23T10:09:16;19.66;38.80
63976;DHT22;50167;47.958;21.780;2023-03-23T10:14:43;19.72;39.06
63976;DHT22;50167;47.958;21.780;2023-03-23T10:22:34;19.94;38.22
63976;DHT22;50167;47.958;21.780;2023-03-23T10:30:41;19.94;37.91
63976;DHT22;50167;47.958;21.780;2023-03-23T10:33:25;19.97;39.09
63976;DHT22;50167;47.958;21.780;2023-03-23T10:36:05;20.08;37.90
63976;DHT22;50167;47.958;21.780;2023-03-23T10:38:34;20.20;38.63
63976;DHT22;50167;47.958;21.780;2023-03-23T10:41:13;20.38;37.76
63976;DHT22;50167;47.958;21.780;2023-03-23T10:43:35;20.43;37.95
63976;DHT22;50167;47.958;21.780;2023-03-23T10:46:19;20.52;37.60
63976;DHT22;50167;47.958;21.780;2023-03-23T10:48:44;20.62;36.79
63976;DHT22;50167;47.958;21.780;2023-03-23T10:51:14;20.52;36.95
63976;DHT22;50167;47.958;21.780;2023-03-23T10:53:51;20.55;37.90
63976;DHT22;50167;47.958;21.780;2023-03-23T10:56:29;20.78;37.56
63976;DHT22;50167;47.958;21.780;2023-03-23T10:58:55;21.00;37.52
63976;DHT22;50167;47.958;21.780;2023-03-23T11:01:33;21.28;36.81
63976;DHT22;50167;47.958;21.780;2023-03-23T11:04:02;21.48;35.19
63976;DHT22;50167;47.958;21.780;2023-03-23T11:06:33;21.45;34.91
63976;DHT22;50167;47.958;21.780;2023-03-23T11:09:17;21.30;35.50
63976;DHT22;50167;47.958;21.780;2023-03-23T11:11:51;21.30;36.01
63976;DHT22;50167;47.958;21.780;2023-03-23T11:14:31;21.44;34.92
63976;DHT22;50167;47.958;21.780;2023-03-23T11:17:03;21.41;35.37
63976;DHT22;50167;47.958;21.780;2023-03-23T11:19:33;21.44;34.69
63976;DHT22;50167;47.958;21.780;2023-03-23T11:22:14;21.47;34.89
63976;DHT22;50167;47.958;21.780;2023-03-23T11:24:46;21.44;35.24
63976;DHT22;50167;47.958;21.780;2023-03-23T11:27:14;21.54;35.61
63976;DHT22;50167;47.958;21.780;2023-03-23T11:29:56;21.54;35.79
63976;DHT22;50167;47.958;21.780;2023-03-23T11:32:29;21.57;34.90
63976;DHT22;50167;47.958;21.780;2023-03-23T11:35:06;21.57;34.69
63976;DHT22;50167;47.958;21.780;2023-03-23T11:37:54;21.64;35.34
63976;DHT22;50167;47.958;21.780;2023-03-23T11:40:24;21.80;34.65
63976;DHT22;50167;47.958;21.780;2023-03-23T11:43:06;21.80;34.65
63976;DHT22;50167;47.958;21.780;2023-03-23T11:45:40;21.83;34.74
63976;DHT22;50167;47.958;21.780;2023-03-23T11:48:38;21.80;34.42
63976;DHT22;50167;47.958;21.780;2023-03-23T11:54:16;21.82;34.80
63976;DHT22;50167;47.958;21.780;2023-03-23T11:56:44;21.88;35.03
63976;DHT22;50167;47.958;21.780;2023-03-23T11:59:17;21.95;34.67
63976;DHT22;50167;47.958;21.780;2023-03-23T12:01:59;21.97;35.10
63976;DHT22;50167;47.958;21.780;2023-03-23T12:15:36;21.99;34.59
63976;DHT22;50167;47.958;21.780;2023-03-23T12:21:25;22.19;34.36
63976;DHT22;50167;47.958;21.780;2023-03-23T12:30:18;22.78;33.44
63976;DHT22;50167;47.958;21.780;2023-03-23T12:33:04;23.15;32.25
63976;DHT22;50167;47.958;21.780;2023-03-23T12:38:51;23.94;30.82
63976;DHT22;50167;47.958;21.780;2023-03-23T12:41:52;24.17;30.96
63976;DHT22;50167;47.958;21.780;2023-03-23T12:44:24;24.36;30.12
63976;DHT22;50167;47.958;21.780;2023-03-23T12:49:45;24.53;31.21
63976;DHT22;50167;47.958;21.780;2023-03-23T12:55:04;25.57;28.95
63976;DHT22;50167;47.958;21.780;2023-03-23T12:57:54;25.75;28.68
63976;DHT22;50167;47.958;21.780;2023-03-23T13:03:29;26.97;27.45
63976;DHT22;50167;47.958;21.780;2023-03-23T13:11:49;28.45;25.87
63976;DHT22;50167;47.958;21.780;2023-03-23T13:23:31;28.10;25.46
63976;DHT22;50167;47.958;21.780;2023-03-23T13:26:07;27.86;26.20
63976;DHT22;50167;47.958;21.780;2023-03-23T13:29:01;27.82;25.08
63976;DHT22;50167;47.958;21.780;2023-03-23T13:31:37;27.03;26.07
63976;DHT22;50167;47.958;21.780;2023-03-23T13:34:22;26.07;27.76
63976;DHT22;50167;47.958;21.780;2023-03-23T13:37:04;25.23;28.87
63976;DHT22;50167;47.958;21.780;2023-03-23T13:39:56;24.47;29.16
63976;DHT22;50167;47.958;21.780;2023-03-23T13:42:28;23.61;30.47
63976;DHT22;50167;47.958;21.780;2023-03-23T13:45:20;22.93;31.78
63976;DHT22;50167;47.958;21.780;2023-03-23T13:47:48;22.38;32.33
63976;DHT22;50167;47.958;21.780;2023-03-23T13:50:27;22.10;32.91
63976;DHT22;50167;47.958;21.780;2023-03-23T13:52:54;21.85;33.48
63976;DHT22;50167;47.958;21.780;2023-03-23T13:55:38;21.61;33.95
63976;DHT22;50167;47.958;21.780;2023-03-23T14:01:12;21.27;34.63
63976;DHT22;50167;47.958;21.780;2023-03-23T14:03:43;21.17;34.22
63976;DHT22;50167;47.958;21.780;2023-03-23T14:06:15;21.00;34.58
63976;DHT22;50167;47.958;21.780;2023-03-23T14:08:45;20.90;35.07
63976;DHT22;50167;47.958;21.780;2023-03-23T14:11:24;20.99;34.39
63976;DHT22;50167;47.958;21.780;2023-03-23T14:14:06;20.84;34.47
63976;DHT22;50167;47.958;21.780;2023-03-23T14:16:42;20.76;35.01
63976;DHT22;50167;47.958;21.780;2023-03-23T14:19:25;20.76;35.72
63976;DHT22;50167;47.958;21.780;2023-03-23T14:21:58;21.20;35.28
63976;DHT22;50167;47.958;21.780;2023-03-23T14:24:30;21.66;34.79
63976;DHT22;50167;47.958;21.780;2023-03-23T14:27:17;21.96;33.84
63976;DHT22;50167;47.958;21.780;2023-03-23T14:29:43;22.09;33.39
63976;DHT22;50167;47.958;21.780;2023-03-23T14:32:15;22.10;33.45
63976;DHT22;50167;47.958;21.780;2023-03-23T14:34:42;22.43;33.62
63976;DHT22;50167;47.958;21.780;2023-03-23T14:37:14;22.92;32.89
63976;DHT22;50167;47.958;21.780;2023-03-23T14:39:51;23.02;32.57
63976;DHT22;50167;47.958;21.780;2023-03-23T14:42:19;22.82;32.75
63976;DHT22;50167;47.958;21.780;2023-03-23T14:44:48;22.61;33.13
63976;DHT22;50167;47.958;21.780;2023-03-23T14:47:27;22.38;33.35
63976;DHT22;50167;47.958;21.780;2023-03-23T14:49:59;22.10;33.73
63976;DHT22;50167;47.958;21.780;2023-03-23T14:52:29;21.88;34.25
63976;DHT22;50167;47.958;21.780;2023-03-23T14:55:13;21.73;34.86
63976;DHT22;50167;47.958;21.780;2023-03-23T14:57:43;21.65;34.97
63976;DHT22;50167;47.958;21.780;2023-03-23T15:00:31;21.59;35.07
63976;DHT22;50167;47.958;21.780;2023-03-23T15:02:56;21.47;35.04
63976;DHT22;50167;47.958;21.780;2023-03-23T15:05:32;21.22;35.43
63976;DHT22;50167;47.958;21.780;2023-03-23T15:08:12;21.04;35.90
63976;DHT22;50167;47.958;21.780;2023-03-23T15:10:37;21.42;35.50
63976;DHT22;50167;47.958;21.780;2023-03-23T15:13:05;21.80;34.75
63976;DHT22;50167;47.958;21.780;2023-03-23T15:15:34;21.82;34.86
63976;DHT22;50167;47.958;21.780;2023-03-23T15:18:03;21.69;35.13
63976;DHT22;50167;47.958;21.780;2023-03-23T15:20:48;21.66;35.17
63976;DHT22;50167;47.958;21.780;2023-03-23T15:23:28;21.95;35.10
63976;DHT22;50167;47.958;21.780;2023-03-23T15:25:57;22.25;33.88
63976;DHT22;50167;47.958;21.780;2023-03-23T15:28:32;22.28;33.58
63976;DHT22;50167;47.958;21.780;2023-03-23T15:31:05;22.21;33.87
63976;DHT22;50167;47.958;21.780;2023-03-23T15:33:37;22.10;34.08
63976;DHT22;50167;47.958;21.780;2023-03-23T15:36:17;22.03;34.52
63976;DHT22;50167;47.958;21.780;2023-03-23T15:38:46;22.17;34.80
63976;DHT22;50167;47.958;21.780;2023-03-23T15:41:25;22.24;34.40
63976;DHT22;50167;47.958;21.780;2023-03-23T15:43:56;22.28;34.33
63976;DHT22;50167;47.958;21.780;2023-03-23T15:46:28;22.31;34.15
63976;DHT22;50167;47.958;21.780;2023-03-23T15:49:07;22.20;34.22
63976;DHT22;50167;47.958;21.780;2023-03-23T15:51:30;21.76;35.01
63976;DHT22;50167;47.958;21.780;2023-03-23T15:53:59;21.31;35.49
63976;DHT22;50167;47.958;21.780;2023-03-23T15:56:26;20.90;36.03
63976;DHT22;50167;47.958;21.780;2023-03-23T15:58:53;20.46;36.92
63976;DHT22;50167;47.958;21.780;2023-03-23T16:01:25;20.10;37.61
63976;DHT22;50167;47.958;21.780;2023-03-23T16:04:10;19.78;37.54
63976;DHT22;50167;47.958;21.780;2023-03-23T16:06:37;19.45;38.55
63976;DHT22;50167;47.958;21.780;2023-03-23T16:09:05;19.21;38.72
63976;DHT22;50167;47.958;21.780;2023-03-23T16:11:32;19.02;39.90
63976;DHT22;50167;47.958;21.780;2023-03-23T16:14:03;18.84;40.19
63976;DHT22;50167;47.958;21.780;2023-03-23T16:16:38;18.69;40.46
63976;DHT22;50167;47.958;21.780;2023-03-23T16:19:05;18.59;40.79
63976;DHT22;50167;47.958;21.780;2023-03-23T16:21:32;18.46;41.21
63976;DHT22;50167;47.958;21.780;2023-03-23T16:23:59;18.36;41.66
63976;DHT22;50167;47.958;21.780;2023-03-23T16:26:25;18.23;41.72
63976;DHT22;50167;47.958;21.780;2023-03-23T16:28:51;18.12;41.82
63976;DHT22;50167;47.958;21.780;2023-03-23T16:31:17;18.00;42.15
63976;DHT22;50167;47.958;21.780;2023-03-23T16:33:43;17.87;42.76
63976;DHT22;50167;47.958;21.780;2023-03-23T16:36:12;17.76;43.41
63976;DHT22;50167;47.958;21.780;2023-03-23T16:38:40;17.63;43.57
63976;DHT22;50167;47.958;21.780;2023-03-23T16:41:07;17.50;43.94
63976;DHT22;50167;47.958;21.780;2023-03-23T16:43:36;17.40;44.23
63976;DHT22;50167;47.958;21.780;2023-03-23T16:46:02;17.29;44.34
63976;DHT22;50167;47.958;21.780;2023-03-23T16:48:28;17.18;44.50
63976;DHT22;50167;47.958;21.780;2023-03-23T16:50:55;17.11;44.73
63976;DHT22;50167;47.958;21.780;2023-03-23T16:53:22;16.99;45.09
63976;DHT22;50167;47.958;21.780;2023-03-23T16:55:52;16.91;45.21
63976;DHT22;50167;47.958;21.780;2023-03-23T16:58:19;16.81;46.47
63976;DHT22;50167;47.958;21.780;2023-03-23T17:00:49;16.70;46.79
63976;DHT22;50167;47.958;21.780;2023-03-23T17:03:18;16.57;46.27
63976;DHT22;50167;47.958;21.780;2023-03-23T17:05:48;16.46;46.72
63976;DHT22;50167;47.958;21.780;2023-03-23T17:08:16;16.36;46.82
63976;DHT22;50167;47.958;21.780;2023-03-23T17:10:43;16.28;46.93